sensor_id;sensor_type;location;lat;lon;timestamp;P1;durP1;ratioP1;P2;durP2;ratioP2
58637;SDS011;54976;51.510;7.522;2023-06-22T00:00:35;6.45;;;4.10;;
58637;SDS011;54976;51.510;7.522;2023-06-22T00:03:36;5.38;;;3.80;;
58637;SDS011;54976;51.510;7.522;2023-06-22T00:06:37;7.88;;;5.00;;
58637;SDS011;54976;51.510;7.522;2023-06-22T00:09:37;9.45;;;4.78;;
58637;SDS011;54976;51.510;7.522;2023-06-22T00:12:38;10.20;;;5.95;;
58637;SDS011;54976;51.510;7.522;2023-06-22T00:15:39;8.02;;;5.60;;
58637;SDS011;54976;51.510;7.522;2023-06-22T00:18:40;10.68;;;6.20;;
58637;SDS011;54976;51.510;7.522;2023-06-22T00:21:47;14.60;;;6.72;;
58637;SDS011;54976;51.510;7.522;2023-06-22T00:24:52;9.10;;;6.22;;
58637;SDS011;54976;51.510;7.522;2023-06-22T00:27:53;10.50;;;6.78;;
58637;SDS011;54976;51.510;7.522;2023-06-22T00:30:53;12.13;;;5.90;;
58637;SDS011;54976;51.510;7.522;2023-06-22T00:33:54;9.20;;;5.80;;
58637;SDS011;54976;51.510;7.522;2023-06-22T00:36:55;10.52;;;6.05;;
58637;SDS011;54976;51.510;7.522;2023-06-22T00:39:55;11.65;;;7.60;;
58637;SDS011;54976;51.510;7.522;2023-06-22T00:42:57;12.20;;;7.03;;
58637;SDS011;54976;51.510;7.522;2023-06-22T00:45:58;6.70;;;5.60;;
58637;SDS011;54976;51.510;7.522;2023-06-22T00:48:59;7.53;;;6.47;;
58637;SDS011;54976;51.510;7.522;2023-06-22T00:52:00;8.98;;;6.07;;
58637;SDS011;54976;51.510;7.522;2023-06-22T00:55:02;12.50;;;6.60;;
58637;SDS011;54976;51.510;7.522;2023-06-22T00:58:04;13.13;;;7.20;;
58637;SDS011;54976;51.510;7.522;2023-06-22T01:01:10;13.88;;;6.53;;
58637;SDS011;54976;51.510;7.522;2023-06-22T01:04:11;11.73;;;6.75;;
58637;SDS011;54976;51.510;7.522;2023-06-22T01:11:00;12.90;;;6.15;;
58637;SDS011;54976;51.510;7.522;2023-06-22T01:14:21;12.52;;;7.00;;
58637;SDS011;54976;51.510;7.522;2023-06-22T01:17:28;50.63;;;8.15;;
58637;SDS011;54976;51.510;7.522;2023-06-22T01:20:29;46.28;;;7.55;;
58637;SDS011;54976;51.510;7.522;2023-06-22T01:26:41;26.73;;;5.97;;
58637;SDS011;54976;51.510;7.522;2023-06-22T01:29:48;19.63;;;6.20;;
58637;SDS011;54976;51.510;7.522;2023-06-22T01:32:53;15.43;;;6.82;;
58637;SDS011;54976;51.510;7.522;2023-06-22T01:35:55;11.32;;;7.15;;
58637;SDS011;54976;51.510;7.522;2023-06-22T01:38:56;13.13;;;7.13;;
58637;SDS011;54976;51.510;7.522;2023-06-22T01:41:57;13.57;;;7.85;;
58637;SDS011;54976;51.510;7.522;2023-06-22T01:44:58;9.82;;;6.63;;
58637;SDS011;54976;51.510;7.522;2023-06-22T01:48:00;10.23;;;7.40;;
58637;SDS011;54976;51.510;7.522;2023-06-22T01:51:02;10.32;;;7.20;;
58637;SDS011;54976;51.510;7.522;2023-06-22T01:54:03;14.02;;;7.85;;
58637;SDS011;54976;51.510;7.522;2023-06-22T01:57:06;9.20;;;6.88;;
58637;SDS011;54976;51.510;7.522;2023-06-22T02:00:11;10.43;;;7.10;;
58637;SDS011;54976;51.510;7.522;2023-06-22T02:03:15;11.73;;;7.20;;
58637;SDS011;54976;51.510;7.522;2023-06-22T02:06:38;10.30;;;7.05;;
58637;SDS011;54976;51.510;7.522;2023-06-22T02:09:43;8.10;;;7.25;;
58637;SDS011;54976;51.510;7.522;2023-06-22T02:12:45;9.30;;;7.68;;
58637;SDS011;54976;51.510;7.522;2023-06-22T02:15:47;11.90;;;7.03;;
58637;SDS011;54976;51.510;7.522;2023-06-22T02:18:49;10.63;;;7.55;;
58637;SDS011;54976;51.510;7.522;2023-06-22T02:21:53;9.82;;;7.82;;
58637;SDS011;54976;51.510;7.522;2023-06-22T02:24:54;13.20;;;8.13;;
58637;SDS011;54976;51.510;7.522;2023-06-22T02:27:54;12.15;;;6.82;;
58637;SDS011;54976;51.510;7.522;2023-06-22T02:30:55;10.30;;;7.45;;
58637;SDS011;54976;51.510;7.522;2023-06-22T02:33:57;10.10;;;6.50;;
58637;SDS011;54976;51.510;7.522;2023-06-22T02:36:58;16.55;;;7.90;;
58637;SDS011;54976;51.510;7.522;2023-06-22T02:40:01;13.85;;;6.85;;
58637;SDS011;54976;51.510;7.522;2023-06-22T02:43:04;9.88;;;6.80;;
58637;SDS011;54976;51.510;7.522;2023-06-22T02:46:04;14.15;;;7.57;;
58637;SDS011;54976;51.510;7.522;2023-06-22T02:49:05;10.77;;;7.57;;
58637;SDS011;54976;51.510;7.522;2023-06-22T02:52:06;12.80;;;8.27;;
58637;SDS011;54976;51.510;7.522;2023-06-22T02:55:06;13.77;;;7.97;;
58637;SDS011;54976;51.510;7.522;2023-06-22T02:58:08;13.27;;;7.53;;
58637;SDS011;54976;51.510;7.522;2023-06-22T03:01:08;13.48;;;7.82;;
58637;SDS011;54976;51.510;7.522;2023-06-22T03:04:10;10.07;;;7.43;;
58637;SDS011;54976;51.510;7.522;2023-06-22T03:07:10;14.10;;;7.93;;
58637;SDS011;54976;51.510;7.522;2023-06-22T03:10:11;12.02;;;8.50;;
58637;SDS011;54976;51.510;7.522;2023-06-22T03:13:12;12.52;;;8.57;;
58637;SDS011;54976;51.510;7.522;2023-06-22T03:16:13;11.60;;;8.93;;
58637;SDS011;54976;51.510;7.522;2023-06-22T03:19:14;15.55;;;9.00;;
58637;SDS011;54976;51.510;7.522;2023-06-22T03:22:14;12.68;;;9.00;;
58637;SDS011;54976;51.510;7.522;2023-06-22T03:25:15;10.07;;;8.98;;
58637;SDS011;54976;51.510;7.522;2023-06-22T03:28:15;11.85;;;8.65;;
58637;SDS011;54976;51.510;7.522;2023-06-22T03:31:16;14.07;;;9.00;;
58637;SDS011;54976;51.510;7.522;2023-06-22T03:34:21;13.18;;;8.77;;
58637;SDS011;54976;51.510;7.522;2023-06-22T03:37:22;11.15;;;9.55;;
58637;SDS011;54976;51.510;7.522;2023-06-22T03:40:22;14.25;;;8.88;;
58637;SDS011;54976;51.510;7.522;2023-06-22T03:43:23;11.30;;;9.25;;
58637;SDS011;54976;51.510;7.522;2023-06-22T03:46:23;14.70;;;10.25;;
58637;SDS011;54976;51.510;7.522;2023-06-22T03:49:24;20.38;;;10.25;;
58637;SDS011;54976;51.510;7.522;2023-06-22T03:52:25;15.98;;;9.63;;
58637;SDS011;54976;51.510;7.522;2023-06-22T03:55:25;13.75;;;9.68;;
58637;SDS011;54976;51.510;7.522;2023-06-22T03:58:26;13.82;;;10.27;;
58637;SDS011;54976;51.510;7.522;2023-06-22T04:01:26;16.75;;;9.82;;
58637;SDS011;54976;51.510;7.522;2023-06-22T04:04:27;12.85;;;9.88;;
58637;SDS011;54976;51.510;7.522;2023-06-22T04:07:28;16.15;;;10.40;;
58637;SDS011;54976;51.510;7.522;2023-06-22T04:10:28;16.27;;;10.55;;
58637;SDS011;54976;51.510;7.522;2023-06-22T04:13:29;13.55;;;9.43;;
58637;SDS011;54976;51.510;7.522;2023-06-22T04:16:29;16.83;;;10.82;;
58637;SDS011;54976;51.510;7.522;2023-06-22T04:19:30;13.52;;;9.30;;
58637;SDS011;54976;51.510;7.522;2023-06-22T04:22:30;16.73;;;9.93;;
58637;SDS011;54976;51.510;7.522;2023-06-22T04:25:31;20.23;;;11.18;;
58637;SDS011;54976;51.510;7.522;2023-06-22T04:28:32;13.68;;;10.75;;
58637;SDS011;54976;51.510;7.522;2023-06-22T04:31:35;13.30;;;10.18;;
58637;SDS011;54976;51.510;7.522;2023-06-22T04:34:38;17.98;;;10.40;;
58637;SDS011;54976;51.510;7.522;2023-06-22T04:37:38;17.17;;;10.52;;
58637;SDS011;54976;51.510;7.522;2023-06-22T04:40:39;16.33;;;11.50;;
58637;SDS011;54976;51.510;7.522;2023-06-22T04:43:40;14.13;;;10.48;;
58637;SDS011;54976;51.510;7.522;2023-06-22T04:46:41;13.13;;;9.75;;
58637;SDS011;54976;51.510;7.522;2023-06-22T04:49:41;21.85;;;11.02;;
58637;SDS011;54976;51.510;7.522;2023-06-22T04:52:43;19.23;;;11.25;;
58637;SDS011;54976;51.510;7.522;2023-06-22T04:55:43;13.25;;;11.27;;
58637;SDS011;54976;51.510;7.522;2023-06-22T04:58:46;13.68;;;10.57;;
58637;SDS011;54976;51.510;7.522;2023-06-22T05:01:47;17.48;;;11.55;;
58637;SDS011;54976;51.510;7.522;2023-06-22T05:04:47;15.20;;;10.98;;
58637;SDS011;54976;51.510;7.522;2023-06-22T05:07:51;15.77;;;11.95;;
58637;SDS011;54976;51.510;7.522;2023-06-22T05:10:59;14.18;;;10.45;;
58637;SDS011;54976;51.510;7.522;2023-06-22T05:14:00;13.27;;;11.15;;
58637;SDS011;54976;51.510;7.522;2023-06-22T05:17:00;16.52;;;11.00;;
58637;SDS011;54976;51.510;7.522;2023-06-22T05:20:03;17.05;;;9.90;;
58637;SDS011;54976;51.510;7.522;2023-06-22T05:23:06;16.45;;;11.20;;
58637;SDS011;54976;51.510;7.522;2023-06-22T05:26:07;13.73;;;10.77;;
58637;SDS011;54976;51.510;7.522;2023-06-22T05:29:09;18.45;;;11.32;;
58637;SDS011;54976;51.510;7.522;2023-06-22T05:32:10;14.50;;;9.77;;
58637;SDS011;54976;51.510;7.522;2023-06-22T05:35:10;17.17;;;9.85;;
58637;SDS011;54976;51.510;7.522;2023-06-22T05:38:11;15.32;;;8.95;;
58637;SDS011;54976;51.510;7.522;2023-06-22T05:41:12;13.35;;;8.88;;
58637;SDS011;54976;51.510;7.522;2023-06-22T05:44:12;12.40;;;8.95;;
58637;SDS011;54976;51.510;7.522;2023-06-22T05:47:13;14.15;;;8.57;;
58637;SDS011;54976;51.510;7.522;2023-06-22T05:50:13;16.23;;;8.90;;
58637;SDS011;54976;51.510;7.522;2023-06-22T05:53:14;16.92;;;9.75;;
58637;SDS011;54976;51.510;7.522;2023-06-22T05:56:15;19.80;;;10.57;;
58637;SDS011;54976;51.510;7.522;2023-06-22T05:59:16;14.00;;;10.50;;
58637;SDS011;54976;51.510;7.522;2023-06-22T06:02:17;17.10;;;10.57;;
58637;SDS011;54976;51.510;7.522;2023-06-22T06:05:17;13.50;;;10.82;;
58637;SDS011;54976;51.510;7.522;2023-06-22T06:08:19;14.40;;;10.80;;
58637;SDS011;54976;51.510;7.522;2023-06-22T06:11:19;15.93;;;12.43;;
58637;SDS011;54976;51.510;7.522;2023-06-22T06:14:20;16.75;;;10.60;;
58637;SDS011;54976;51.510;7.522;2023-06-22T06:17:21;16.73;;;11.43;;
58637;SDS011;54976;51.510;7.522;2023-06-22T06:20:22;18.58;;;11.48;;
58637;SDS011;54976;51.510;7.522;2023-06-22T06:23:24;22.00;;;11.15;;
58637;SDS011;54976;51.510;7.522;2023-06-22T06:26:25;23.55;;;12.75;;
58637;SDS011;54976;51.510;7.522;2023-06-22T06:29:29;17.98;;;12.43;;
58637;SDS011;54976;51.510;7.522;2023-06-22T06:32:30;19.25;;;12.10;;
58637;SDS011;54976;51.510;7.522;2023-06-22T06:35:31;21.38;;;12.85;;
58637;SDS011;54976;51.510;7.522;2023-06-22T06:38:31;16.10;;;12.95;;
58637;SDS011;54976;51.510;7.522;2023-06-22T06:41:32;22.02;;;13.30;;
58637;SDS011;54976;51.510;7.522;2023-06-22T06:44:32;20.52;;;13.02;;
58637;SDS011;54976;51.510;7.522;2023-06-22T06:47:33;16.60;;;12.52;;
58637;SDS011;54976;51.510;7.522;2023-06-22T06:50:34;20.08;;;12.95;;
58637;SDS011;54976;51.510;7.522;2023-06-22T06:53:35;17.98;;;12.35;;
58637;SDS011;54976;51.510;7.522;2023-06-22T06:56:37;19.40;;;12.75;;
58637;SDS011;54976;51.510;7.522;2023-06-22T06:59:38;18.30;;;11.93;;
58637;SDS011;54976;51.510;7.522;2023-06-22T07:02:39;31.63;;;13.38;;
58637;SDS011;54976;51.510;7.522;2023-06-22T07:05:41;21.92;;;12.57;;
58637;SDS011;54976;51.510;7.522;2023-06-22T07:08:41;17.38;;;13.05;;
58637;SDS011;54976;51.510;7.522;2023-06-22T07:11:42;19.13;;;14.38;;
58637;SDS011;54976;51.510;7.522;2023-06-22T07:14:43;23.27;;;13.15;;
58637;SDS011;54976;51.510;7.522;2023-06-22T07:17:44;27.23;;;13.60;;
58637;SDS011;54976;51.510;7.522;2023-06-22T07:20:44;29.55;;;14.30;;
58637;SDS011;54976;51.510;7.522;2023-06-22T07:23:45;19.23;;;13.77;;
58637;SDS011;54976;51.510;7.522;2023-06-22T07:26:46;20.33;;;13.35;;
58637;SDS011;54976;51.510;7.522;2023-06-22T07:29:48;20.55;;;13.57;;
58637;SDS011;54976;51.510;7.522;2023-06-22T07:32:48;17.70;;;12.70;;
58637;SDS011;54976;51.510;7.522;2023-06-22T07:35:49;22.92;;;13.57;;
58637;SDS011;54976;51.510;7.522;2023-06-22T07:38:52;18.88;;;13.35;;
58637;SDS011;54976;51.510;7.522;2023-06-22T07:41:52;22.60;;;14.80;;
58637;SDS011;54976;51.510;7.522;2023-06-22T07:44:53;25.35;;;15.50;;
58637;SDS011;54976;51.510;7.522;2023-06-22T07:47:54;23.30;;;14.82;;
58637;SDS011;54976;51.510;7.522;2023-06-22T07:50:55;16.05;;;14.35;;
58637;SDS011;54976;51.510;7.522;2023-06-22T07:53:56;19.42;;;15.05;;
58637;SDS011;54976;51.510;7.522;2023-06-22T07:56:56;25.00;;;15.05;;
58637;SDS011;54976;51.510;7.522;2023-06-22T07:59:57;27.27;;;15.45;;
58637;SDS011;54976;51.510;7.522;2023-06-22T08:02:59;25.88;;;15.00;;
58637;SDS011;54976;51.510;7.522;2023-06-22T08:05:59;20.50;;;14.85;;
58637;SDS011;54976;51.510;7.522;2023-06-22T08:09:00;16.75;;;14.60;;
58637;SDS011;54976;51.510;7.522;2023-06-22T08:12:01;26.17;;;15.45;;
58637;SDS011;54976;51.510;7.522;2023-06-22T08:15:01;18.95;;;14.77;;
58637;SDS011;54976;51.510;7.522;2023-06-22T08:18:02;20.63;;;15.45;;
58637;SDS011;54976;51.510;7.522;2023-06-22T08:21:03;22.52;;;15.70;;
58637;SDS011;54976;51.510;7.522;2023-06-22T08:24:04;37.75;;;16.75;;
58637;SDS011;54976;51.510;7.522;2023-06-22T08:27:06;27.60;;;15.35;;
58637;SDS011;54976;51.510;7.522;2023-06-22T08:30:15;21.02;;;14.52;;
58637;SDS011;54976;51.510;7.522;2023-06-22T08:33:18;19.55;;;14.10;;
58637;SDS011;54976;51.510;7.522;2023-06-22T08:36:18;20.67;;;13.57;;
58637;SDS011;54976;51.510;7.522;2023-06-22T08:39:19;19.10;;;12.40;;
58637;SDS011;54976;51.510;7.522;2023-06-22T08:42:20;15.65;;;11.45;;
58637;SDS011;54976;51.510;7.522;2023-06-22T08:45:21;22.25;;;11.98;;
58637;SDS011;54976;51.510;7.522;2023-06-22T08:48:21;16.35;;;12.13;;
58637;SDS011;54976;51.510;7.522;2023-06-22T08:51:22;15.95;;;12.45;;
58637;SDS011;54976;51.510;7.522;2023-06-22T08:54:23;16.45;;;12.27;;
58637;SDS011;54976;51.510;7.522;2023-06-22T08:57:23;14.52;;;11.40;;
58637;SDS011;54976;51.510;7.522;2023-06-22T09:00:24;20.20;;;11.45;;
58637;SDS011;54976;51.510;7.522;2023-06-22T09:03:24;16.20;;;12.13;;
58637;SDS011;54976;51.510;7.522;2023-06-22T09:06:26;13.45;;;10.52;;
58637;SDS011;54976;51.510;7.522;2023-06-22T09:09:27;18.63;;;10.40;;
58637;SDS011;54976;51.510;7.522;2023-06-22T09:12:27;9.95;;;8.55;;
58637;SDS011;54976;51.510;7.522;2023-06-22T09:15:30;11.35;;;8.48;;
58637;SDS011;54976;51.510;7.522;2023-06-22T09:18:31;15.43;;;8.73;;
58637;SDS011;54976;51.510;7.522;2023-06-22T09:21:31;13.07;;;8.82;;
58637;SDS011;54976;51.510;7.522;2023-06-22T09:24:32;18.55;;;9.90;;
58637;SDS011;54976;51.510;7.522;2023-06-22T09:27:33;14.25;;;8.85;;
58637;SDS011;54976;51.510;7.522;2023-06-22T09:30:33;14.07;;;8.85;;
58637;SDS011;54976;51.510;7.522;2023-06-22T09:33:35;15.05;;;8.38;;
58637;SDS011;54976;51.510;7.522;2023-06-22T09:36:36;10.32;;;8.00;;
58637;SDS011;54976;51.510;7.522;2023-06-22T09:42:40;8.40;;;7.40;;
58637;SDS011;54976;51.510;7.522;2023-06-22T09:45:41;7.40;;;6.70;;
58637;SDS011;54976;51.510;7.522;2023-06-22T09:48:42;8.93;;;6.57;;
58637;SDS011;54976;51.510;7.522;2023-06-22T09:51:43;12.52;;;8.50;;
58637;SDS011;54976;51.510;7.522;2023-06-22T09:54:44;12.80;;;8.23;;
58637;SDS011;54976;51.510;7.522;2023-06-22T09:57:44;12.13;;;7.45;;
58637;SDS011;54976;51.510;7.522;2023-06-22T10:00:45;10.45;;;8.57;;
58637;SDS011;54976;51.510;7.522;2023-06-22T10:03:45;11.25;;;8.05;;
58637;SDS011;54976;51.510;7.522;2023-06-22T10:06:46;11.57;;;7.95;;
58637;SDS011;54976;51.510;7.522;2023-06-22T10:09:47;11.27;;;7.90;;
58637;SDS011;54976;51.510;7.522;2023-06-22T10:12:55;8.82;;;7.93;;
58637;SDS011;54976;51.510;7.522;2023-06-22T10:15:57;10.13;;;8.20;;
58637;SDS011;54976;51.510;7.522;2023-06-22T10:18:58;11.80;;;8.70;;
58637;SDS011;54976;51.510;7.522;2023-06-22T10:21:59;10.50;;;8.90;;
58637;SDS011;54976;51.510;7.522;2023-06-22T10:24:59;11.27;;;7.05;;
58637;SDS011;54976;51.510;7.522;2023-06-22T10:28:00;10.98;;;8.60;;
58637;SDS011;54976;51.510;7.522;2023-06-22T10:31:00;11.13;;;8.18;;
58637;SDS011;54976;51.510;7.522;2023-06-22T10:34:01;12.20;;;8.00;;
58637;SDS011;54976;51.510;7.522;2023-06-22T10:37:01;8.20;;;7.18;;
58637;SDS011;54976;51.510;7.522;2023-06-22T10:40:02;8.50;;;7.10;;
58637;SDS011;54976;51.510;7.522;2023-06-22T10:43:04;9.43;;;7.03;;
58637;SDS011;54976;51.510;7.522;2023-06-22T10:46:05;10.30;;;6.70;;
58637;SDS011;54976;51.510;7.522;2023-06-22T10:49:06;10.00;;;6.97;;
58637;SDS011;54976;51.510;7.522;2023-06-22T10:52:07;8.93;;;6.95;;
58637;SDS011;54976;51.510;7.522;2023-06-22T10:55:09;8.95;;;6.15;;
58637;SDS011;54976;51.510;7.522;2023-06-22T10:58:10;6.40;;;5.80;;
58637;SDS011;54976;51.510;7.522;2023-06-22T11:01:10;9.13;;;6.05;;
58637;SDS011;54976;51.510;7.522;2023-06-22T11:04:11;7.70;;;5.82;;
58637;SDS011;54976;51.510;7.522;2023-06-22T11:07:12;6.22;;;5.63;;
58637;SDS011;54976;51.510;7.522;2023-06-22T11:10:12;13.23;;;5.85;;
58637;SDS011;54976;51.510;7.522;2023-06-22T11:13:13;7.28;;;5.97;;
58637;SDS011;54976;51.510;7.522;2023-06-22T11:16:14;10.13;;;6.43;;
58637;SDS011;54976;51.510;7.522;2023-06-22T11:19:16;9.93;;;6.65;;
58637;SDS011;54976;51.510;7.522;2023-06-22T11:22:17;8.02;;;6.22;;
58637;SDS011;54976;51.510;7.522;2023-06-22T11:25:17;11.02;;;7.07;;
58637;SDS011;54976;51.510;7.522;2023-06-22T11:28:18;11.98;;;7.65;;
58637;SDS011;54976;51.510;7.522;2023-06-22T11:31:19;12.40;;;8.77;;
58637;SDS011;54976;51.510;7.522;2023-06-22T11:34:19;18.00;;;10.82;;
58637;SDS011;54976;51.510;7.522;2023-06-22T11:37:20;19.65;;;10.27;;
58637;SDS011;54976;51.510;7.522;2023-06-22T11:40:21;14.75;;;10.55;;
58637;SDS011;54976;51.510;7.522;2023-06-22T11:43:22;13.70;;;10.70;;
58637;SDS011;54976;51.510;7.522;2023-06-22T11:46:23;19.02;;;11.75;;
58637;SDS011;54976;51.510;7.522;2023-06-22T11:49:24;16.38;;;12.43;;
58637;SDS011;54976;51.510;7.522;2023-06-22T11:52:24;18.13;;;12.68;;
58637;SDS011;54976;51.510;7.522;2023-06-22T11:55:27;18.42;;;13.50;;
58637;SDS011;54976;51.510;7.522;2023-06-22T11:58:27;17.42;;;14.43;;
58637;SDS011;54976;51.510;7.522;2023-06-22T12:01:28;15.30;;;13.65;;
58637;SDS011;54976;51.510;7.522;2023-06-22T12:04:29;19.63;;;14.85;;
58637;SDS011;54976;51.510;7.522;2023-06-22T12:07:29;27.55;;;17.10;;
58637;SDS011;54976;51.510;7.522;2023-06-22T12:10:30;28.70;;;18.92;;
58637;SDS011;54976;51.510;7.522;2023-06-22T12:13:30;23.83;;;16.73;;
58637;SDS011;54976;51.510;7.522;2023-06-22T12:16:31;20.77;;;15.43;;
58637;SDS011;54976;51.510;7.522;2023-06-22T12:19:32;24.40;;;19.42;;
58637;SDS011;54976;51.510;7.522;2023-06-22T12:22:32;28.30;;;21.20;;
58637;SDS011;54976;51.510;7.522;2023-06-22T12:25:33;37.72;;;23.13;;
58637;SDS011;54976;51.510;7.522;2023-06-22T12:28:34;31.63;;;21.35;;
58637;SDS011;54976;51.510;7.522;2023-06-22T12:31:35;29.67;;;20.15;;
58637;SDS011;54976;51.510;7.522;2023-06-22T12:34:38;26.53;;;19.90;;
58637;SDS011;54976;51.510;7.522;2023-06-22T12:37:40;31.73;;;19.05;;
58637;SDS011;54976;51.510;7.522;2023-06-22T12:40:42;23.10;;;17.98;;
58637;SDS011;54976;51.510;7.522;2023-06-22T12:43:42;35.08;;;20.63;;
58637;SDS011;54976;51.510;7.522;2023-06-22T12:46:43;21.65;;;18.50;;
58637;SDS011;54976;51.510;7.522;2023-06-22T12:49:44;35.53;;;21.95;;
58637;SDS011;54976;51.510;7.522;2023-06-22T12:52:44;24.63;;;18.50;;
58637;SDS011;54976;51.510;7.522;2023-06-22T12:55:45;21.70;;;15.38;;
58637;SDS011;54976;51.510;7.522;2023-06-22T12:58:46;33.60;;;21.20;;
58637;SDS011;54976;51.510;7.522;2023-06-22T13:01:46;22.27;;;17.45;;
58637;SDS011;54976;51.510;7.522;2023-06-22T13:04:47;18.13;;;14.20;;
58637;SDS011;54976;51.510;7.522;2023-06-22T13:07:48;21.83;;;15.93;;
58637;SDS011;54976;51.510;7.522;2023-06-22T13:10:48;19.77;;;15.02;;
58637;SDS011;54976;51.510;7.522;2023-06-22T13:13:49;14.38;;;12.73;;
58637;SDS011;54976;51.510;7.522;2023-06-22T13:16:50;19.98;;;15.90;;
58637;SDS011;54976;51.510;7.522;2023-06-22T13:19:50;20.15;;;14.95;;
58637;SDS011;54976;51.510;7.522;2023-06-22T13:22:51;20.65;;;15.88;;
58637;SDS011;54976;51.510;7.522;2023-06-22T13:25:52;15.95;;;13.00;;
58637;SDS011;54976;51.510;7.522;2023-06-22T13:28:52;20.35;;;16.95;;
58637;SDS011;54976;51.510;7.522;2023-06-22T13:31:53;18.63;;;14.98;;
58637;SDS011;54976;51.510;7.522;2023-06-22T13:34:57;15.35;;;13.20;;
58637;SDS011;54976;51.510;7.522;2023-06-22T13:37:58;16.27;;;14.30;;
58637;SDS011;54976;51.510;7.522;2023-06-22T13:40:58;15.43;;;13.45;;
58637;SDS011;54976;51.510;7.522;2023-06-22T13:43:59;14.27;;;12.82;;
58637;SDS011;54976;51.510;7.522;2023-06-22T13:47:00;14.27;;;12.77;;
58637;SDS011;54976;51.510;7.522;2023-06-22T13:50:01;12.95;;;11.70;;
58637;SDS011;54976;51.510;7.522;2023-06-22T13:53:01;13.23;;;11.73;;
58637;SDS011;54976;51.510;7.522;2023-06-22T13:56:02;13.75;;;12.38;;
58637;SDS011;54976;51.510;7.522;2023-06-22T13:59:03;14.45;;;12.02;;
58637;SDS011;54976;51.510;7.522;2023-06-22T14:02:04;13.50;;;12.07;;
58637;SDS011;54976;51.510;7.522;2023-06-22T14:05:05;15.27;;;12.70;;
58637;SDS011;54976;51.510;7.522;2023-06-22T14:08:06;14.63;;;11.98;;
58637;SDS011;54976;51.510;7.522;2023-06-22T14:11:06;15.40;;;12.85;;
58637;SDS011;54976;51.510;7.522;2023-06-22T14:14:07;14.63;;;11.73;;
58637;SDS011;54976;51.510;7.522;2023-06-22T14:17:07;14.55;;;12.23;;
58637;SDS011;54976;51.510;7.522;2023-06-22T14:20:08;14.55;;;12.57;;
58637;SDS011;54976;51.510;7.522;2023-06-22T14:23:09;15.07;;;12.65;;
58637;SDS011;54976;51.510;7.522;2023-06-22T14:26:09;15.52;;;13.25;;
58637;SDS011;54976;51.510;7.522;2023-06-22T14:29:10;13.90;;;12.38;;
58637;SDS011;54976;51.510;7.522;2023-06-22T14:32:10;14.32;;;12.65;;
58637;SDS011;54976;51.510;7.522;2023-06-22T14:35:11;17.88;;;13.07;;
58637;SDS011;54976;51.510;7.522;2023-06-22T14:38:12;13.30;;;11.90;;
58637;SDS011;54976;51.510;7.522;2023-06-22T14:41:12;16.33;;;12.93;;
58637;SDS011;54976;51.510;7.522;2023-06-22T14:44:15;15.38;;;13.75;;
58637;SDS011;54976;51.510;7.522;2023-06-22T14:47:16;16.85;;;13.65;;
58637;SDS011;54976;51.510;7.522;2023-06-22T14:50:18;20.02;;;14.07;;
58637;SDS011;54976;51.510;7.522;2023-06-22T14:53:19;16.33;;;14.20;;
58637;SDS011;54976;51.510;7.522;2023-06-22T14:56:19;16.50;;;14.60;;
58637;SDS011;54976;51.510;7.522;2023-06-22T14:59:20;19.33;;;14.75;;
58637;SDS011;54976;51.510;7.522;2023-06-22T15:02:20;16.95;;;15.23;;
58637;SDS011;54976;51.510;7.522;2023-06-22T15:05:21;19.10;;;15.63;;
58637;SDS011;54976;51.510;7.522;2023-06-22T15:08:24;16.85;;;15.07;;
58637;SDS011;54976;51.510;7.522;2023-06-22T15:11:26;16.55;;;14.63;;
58637;SDS011;54976;51.510;7.522;2023-06-22T15:14:27;16.23;;;14.52;;
58637;SDS011;54976;51.510;7.522;2023-06-22T15:17:27;17.95;;;15.32;;
58637;SDS011;54976;51.510;7.522;2023-06-22T15:20:30;16.65;;;14.88;;
58637;SDS011;54976;51.510;7.522;2023-06-22T15:23:31;20.85;;;16.50;;
58637;SDS011;54976;51.510;7.522;2023-06-22T15:26:32;18.83;;;16.92;;
58637;SDS011;54976;51.510;7.522;2023-06-22T15:29:33;16.85;;;14.68;;
58637;SDS011;54976;51.510;7.522;2023-06-22T15:32:34;21.13;;;17.45;;
58637;SDS011;54976;51.510;7.522;2023-06-22T15:35:34;20.73;;;18.50;;
58637;SDS011;54976;51.510;7.522;2023-06-22T15:38:35;24.65;;;18.40;;
58637;SDS011;54976;51.510;7.522;2023-06-22T15:41:36;23.15;;;19.40;;
58637;SDS011;54976;51.510;7.522;2023-06-22T15:44:40;21.75;;;19.45;;
58637;SDS011;54976;51.510;7.522;2023-06-22T15:47:41;24.48;;;19.55;;
58637;SDS011;54976;51.510;7.522;2023-06-22T15:50:42;22.60;;;20.20;;
58637;SDS011;54976;51.510;7.522;2023-06-22T15:53:42;29.83;;;23.23;;
58637;SDS011;54976;51.510;7.522;2023-06-22T15:56:43;26.52;;;23.58;;
58637;SDS011;54976;51.510;7.522;2023-06-22T15:59:43;29.50;;;24.52;;
58637;SDS011;54976;51.510;7.522;2023-06-22T16:02:44;34.38;;;26.10;;
58637;SDS011;54976;51.510;7.522;2023-06-22T16:05:46;47.45;;;31.60;;
58637;SDS011;54976;51.510;7.522;2023-06-22T16:08:47;43.10;;;31.73;;
58637;SDS011;54976;51.510;7.522;2023-06-22T16:11:47;34.03;;;28.23;;
58637;SDS011;54976;51.510;7.522;2023-06-22T16:14:49;46.80;;;34.33;;
58637;SDS011;54976;51.510;7.522;2023-06-22T16:17:50;50.65;;;36.42;;
58637;SDS011;54976;51.510;7.522;2023-06-22T16:20:50;57.53;;;36.70;;
58637;SDS011;54976;51.510;7.522;2023-06-22T16:23:51;57.38;;;35.95;;
58637;SDS011;54976;51.510;7.522;2023-06-22T16:26:52;62.22;;;34.65;;
58637;SDS011;54976;51.510;7.522;2023-06-22T16:29:52;51.92;;;31.55;;
58637;SDS011;54976;51.510;7.522;2023-06-22T16:32:53;58.90;;;34.75;;
58637;SDS011;54976;51.510;7.522;2023-06-22T16:35:58;50.55;;;31.65;;
58637;SDS011;54976;51.510;7.522;2023-06-22T16:39:00;64.82;;;35.65;;
58637;SDS011;54976;51.510;7.522;2023-06-22T16:42:00;41.03;;;28.65;;
58637;SDS011;54976;51.510;7.522;2023-06-22T16:45:01;44.13;;;30.70;;
58637;SDS011;54976;51.510;7.522;2023-06-22T16:48:03;40.97;;;28.05;;
58637;SDS011;54976;51.510;7.522;2023-06-22T16:51:04;43.50;;;28.75;;
58637;SDS011;54976;51.510;7.522;2023-06-22T16:54:05;47.30;;;29.77;;
58637;SDS011;54976;51.510;7.522;2023-06-22T16:57:07;53.22;;;32.03;;
58637;SDS011;54976;51.510;7.522;2023-06-22T17:00:08;42.03;;;27.95;;
58637;SDS011;54976;51.510;7.522;2023-06-22T17:03:13;48.60;;;32.58;;
58637;SDS011;54976;51.510;7.522;2023-06-22T17:06:18;40.58;;;29.48;;
58637;SDS011;54976;51.510;7.522;2023-06-22T17:09:19;50.83;;;33.03;;
58637;SDS011;54976;51.510;7.522;2023-06-22T17:12:22;43.35;;;31.67;;
58637;SDS011;54976;51.510;7.522;2023-06-22T17:15:24;50.10;;;32.53;;
58637;SDS011;54976;51.510;7.522;2023-06-22T17:18:30;53.50;;;34.13;;
58637;SDS011;54976;51.510;7.522;2023-06-22T17:21:32;57.35;;;35.58;;
58637;SDS011;54976;51.510;7.522;2023-06-22T17:24:33;61.03;;;35.95;;
58637;SDS011;54976;51.510;7.522;2023-06-22T17:27:35;61.63;;;37.97;;
58637;SDS011;54976;51.510;7.522;2023-06-22T17:30:36;70.80;;;41.40;;
58637;SDS011;54976;51.510;7.522;2023-06-22T17:33:37;75.75;;;39.28;;
58637;SDS011;54976;51.510;7.522;2023-06-22T17:39:51;60.20;;;33.88;;
58637;SDS011;54976;51.510;7.522;2023-06-22T17:43:02;74.57;;;40.78;;
58637;SDS011;54976;51.510;7.522;2023-06-22T17:49:08;66.28;;;36.30;;
58637;SDS011;54976;51.510;7.522;2023-06-22T17:52:15;66.32;;;39.03;;
58637;SDS011;54976;51.510;7.522;2023-06-22T17:55:24;64.57;;;39.08;;
58637;SDS011;54976;51.510;7.522;2023-06-22T17:58:25;73.10;;;40.47;;
58637;SDS011;54976;51.510;7.522;2023-06-22T18:01:29;54.38;;;32.38;;
58637;SDS011;54976;51.510;7.522;2023-06-22T18:04:32;62.85;;;37.00;;